createdAt,value
2018-07-23T00:00:24.776Z,5.13
2018-07-23T00:02:53.538Z,7.20
2018-07-23T00:05:22.328Z,3.90
2018-07-23T00:07:51.104Z,6.90
2018-07-23T00:10:19.946Z,4.40
2018-07-23T00:12:48.678Z,4.80
2018-07-23T00:15:17.445Z,4.23
2018-07-23T00:17:46.188Z,5.47
2018-07-23T00:20:15.001Z,3.80
2018-07-23T00:22:43.787Z,4.20
2018-07-23T00:25:12.667Z,4.80
2018-07-23T00:27:41.485Z,3.53
2018-07-23T00:30:10.319Z,4.17
2018-07-23T00:32:39.142Z,4.80
2018-07-23T00:35:07.956Z,3.97
2018-07-23T00:37:36.793Z,3.00
2018-07-23T00:40:05.586Z,3.60
2018-07-23T00:42:34.389Z,4.63
2018-07-23T00:45:03.191Z,4.63
2018-07-23T00:47:31.968Z,4.37
2018-07-23T00:50:00.763Z,5.80
2018-07-23T00:52:29.667Z,4.60
2018-07-23T00:54:58.477Z,3.67
2018-07-23T00:57:27.284Z,3.77
2018-07-23T00:59:56.097Z,5.30
2018-07-23T01:02:24.885Z,5.20
2018-07-23T01:04:53.806Z,6.30
2018-07-23T01:07:22.630Z,5.23
2018-07-23T01:09:51.819Z,3.50
2018-07-23T01:12:32.504Z,4.77
2018-07-23T01:15:01.336Z,6.73
2018-07-23T01:17:30.167Z,6.73
2018-07-23T01:19:59.751Z,4.73
2018-07-23T01:22:29.067Z,7.43
2018-07-23T01:24:58.604Z,6.13
2018-07-23T01:27:27.429Z,6.40
2018-07-23T01:29:56.193Z,4.33
2018-07-23T01:32:24.977Z,4.43
2018-07-23T01:34:53.772Z,4.50
2018-07-23T01:37:22.577Z,4.23
2018-07-23T01:39:51.357Z,4.20
2018-07-23T01:42:20.099Z,4.20
2018-07-23T01:44:48.820Z,7.60
2018-07-23T01:47:17.639Z,5.77
2018-07-23T01:49:46.393Z,5.77
2018-07-23T01:52:15.174Z,5.67
2018-07-23T01:54:44.010Z,4.47
2018-07-23T01:57:12.745Z,5.37
2018-07-23T01:59:41.530Z,4.77
2018-07-23T02:02:10.379Z,7.17
2018-07-23T02:04:39.315Z,5.47
2018-07-23T02:07:08.546Z,6.93
2018-07-23T02:09:37.330Z,7.50
2018-07-23T02:12:06.243Z,6.53
2018-07-23T02:14:35.047Z,5.33
2018-07-23T02:17:03.933Z,10.37
2018-07-23T02:19:32.745Z,10.20
2018-07-23T02:22:01.560Z,9.50
2018-07-23T02:24:30.300Z,7.33
2018-07-23T02:26:59.069Z,7.43
2018-07-23T02:29:27.893Z,8.80
2018-07-23T02:31:56.710Z,7.10
2018-07-23T02:34:25.479Z,5.83
2018-07-23T02:36:54.231Z,7.90
2018-07-23T02:39:22.988Z,7.10
2018-07-23T02:41:51.790Z,8.40
2018-07-23T02:44:20.759Z,8.00
2018-07-23T02:46:49.581Z,6.07
2018-07-23T02:49:18.402Z,7.10
2018-07-23T02:51:47.332Z,8.03
2018-07-23T02:54:16.122Z,7.23
2018-07-23T02:56:44.940Z,6.57
2018-07-23T02:59:13.726Z,7.43
2018-07-23T03:01:42.544Z,11.03
2018-07-23T03:04:11.373Z,5.27
2018-07-23T03:06:40.170Z,7.60
2018-07-23T03:09:09.071Z,6.67
2018-07-23T03:11:37.824Z,7.27
2018-07-23T03:14:06.632Z,6.07
2018-07-23T03:16:35.439Z,5.47
2018-07-23T03:19:04.245Z,6.57
2018-07-23T03:21:33.100Z,7.20
2018-07-23T03:24:01.919Z,6.50
2018-07-23T03:26:30.759Z,11.33
2018-07-23T03:28:59.560Z,6.73
2018-07-23T03:31:28.323Z,6.53
2018-07-23T03:33:57.067Z,7.30
2018-07-23T03:36:25.886Z,10.17
2018-07-23T03:38:54.619Z,7.33
2018-07-23T03:41:23.593Z,8.30
2018-07-23T03:43:52.451Z,9.70
2018-07-23T03:46:21.289Z,8.27
2018-07-23T03:48:50.117Z,6.83
2018-07-23T03:51:18.937Z,8.70
2018-07-23T03:53:47.693Z,7.03
2018-07-23T03:56:16.454Z,7.53
2018-07-23T03:58:45.268Z,5.37
2018-07-23T04:01:14.050Z,5.83
2018-07-23T04:03:42.802Z,8.57
2018-07-23T04:06:11.580Z,3.53
2018-07-23T04:08:40.385Z,6.30
2018-07-23T04:11:09.225Z,6.23
2018-07-23T04:13:38.027Z,6.07
2018-07-23T04:16:06.794Z,6.97
2018-07-23T04:18:35.537Z,5.83
2018-07-23T04:21:04.403Z,5.77
2018-07-23T04:23:33.110Z,4.63
2018-07-23T04:26:01.904Z,5.37
2018-07-23T04:28:30.714Z,4.33
2018-07-23T04:30:59.433Z,4.07
2018-07-23T04:33:28.246Z,6.40
2018-07-23T04:35:56.989Z,3.17
2018-07-23T04:38:25.945Z,3.53
2018-07-23T04:40:54.725Z,2.60
2018-07-23T04:43:23.504Z,3.20
2018-07-23T04:45:52.337Z,5.20
2018-07-23T04:48:21.104Z,3.47
2018-07-23T04:50:49.946Z,4.80
2018-07-23T04:53:18.715Z,3.93
2018-07-23T04:55:47.500Z,5.33
2018-07-23T04:58:16.249Z,2.87
2018-07-23T05:00:45.059Z,4.97
2018-07-23T05:03:13.871Z,3.17
2018-07-23T05:05:42.649Z,4.47
2018-07-23T05:08:11.440Z,4.37
2018-07-23T05:10:40.275Z,3.40
2018-07-23T05:13:09.047Z,3.30
2018-07-23T05:15:37.829Z,5.07
2018-07-23T05:18:06.695Z,4.00
2018-07-23T05:20:35.502Z,5.53
2018-07-23T05:23:04.278Z,3.63
2018-07-23T05:25:33.143Z,4.23
2018-07-23T05:28:01.932Z,4.97
2018-07-23T05:30:30.689Z,1.87
2018-07-23T05:32:59.519Z,4.50
2018-07-23T05:35:28.307Z,1.67
2018-07-23T05:37:57.032Z,5.20
2018-07-23T05:40:25.762Z,3.33
2018-07-23T05:42:54.582Z,2.23
2018-07-23T05:45:23.386Z,2.00
2018-07-23T05:47:52.183Z,2.33
2018-07-23T05:50:20.947Z,2.60
2018-07-23T05:52:49.757Z,2.83
2018-07-23T05:55:18.582Z,1.93
2018-07-23T05:57:47.485Z,3.83
2018-07-23T06:00:16.387Z,1.90
2018-07-23T06:02:45.109Z,3.50
2018-07-23T06:05:13.888Z,2.37
2018-07-23T06:07:42.714Z,3.23
2018-07-23T06:10:11.518Z,2.20
2018-07-23T06:12:40.305Z,3.33
2018-07-23T06:15:09.774Z,1.97
2018-07-23T06:17:38.546Z,1.70
2018-07-23T06:20:08.009Z,1.00
2018-07-23T06:22:36.760Z,1.67
2018-07-23T06:25:06.278Z,1.60
2018-07-23T06:27:35.159Z,2.23
2018-07-23T06:30:05.046Z,1.43
2018-07-23T06:32:33.777Z,2.37
2018-07-23T06:35:02.601Z,2.90
2018-07-23T06:37:31.533Z,3.10
2018-07-23T06:40:00.254Z,2.00
2018-07-23T06:42:29.177Z,1.97
2018-07-23T06:44:58.018Z,3.10
2018-07-23T06:47:26.857Z,2.20
2018-07-23T06:49:55.655Z,0.70
2018-07-23T06:52:24.753Z,2.80
2018-07-23T06:54:53.628Z,2.30
2018-07-23T06:57:22.502Z,3.37
2018-07-23T06:59:51.415Z,2.67
2018-07-23T07:02:20.175Z,2.70
2018-07-23T07:04:48.981Z,2.97
2018-07-23T07:07:17.792Z,2.87
2018-07-23T07:09:46.577Z,2.07
2018-07-23T07:12:15.352Z,4.67
2018-07-23T07:14:44.191Z,3.67
2018-07-23T07:17:12.958Z,2.00
2018-07-23T07:19:41.809Z,2.23
2018-07-23T07:22:10.597Z,4.13
2018-07-23T07:24:39.625Z,1.47
2018-07-23T07:27:08.439Z,2.50
2018-07-23T07:29:37.314Z,3.77
2018-07-23T07:32:06.243Z,2.13
2018-07-23T07:34:35.203Z,2.57
2018-07-23T07:37:04.040Z,4.07
2018-07-23T07:39:32.867Z,4.00
2018-07-23T07:42:01.671Z,3.30
2018-07-23T07:44:30.469Z,3.80
2018-07-23T07:46:59.348Z,2.67
2018-07-23T07:49:28.078Z,2.70
2018-07-23T07:51:56.922Z,4.40
2018-07-23T07:54:25.734Z,5.63
2018-07-23T07:56:54.508Z,3.50
2018-07-23T07:59:23.332Z,2.80
2018-07-23T08:01:52.110Z,4.77
2018-07-23T08:04:20.911Z,2.57
2018-07-23T08:06:49.729Z,2.43
2018-07-23T08:09:18.556Z,2.77
2018-07-23T08:11:47.435Z,4.73
2018-07-23T08:14:16.279Z,7.67
2018-07-23T08:16:45.091Z,3.70
2018-07-23T08:19:13.906Z,2.23
2018-07-23T08:21:42.776Z,2.97
2018-07-23T08:24:11.599Z,2.17
2018-07-23T08:26:40.407Z,3.27
2018-07-23T08:29:09.281Z,5.10
2018-07-23T08:31:38.337Z,3.00
2018-07-23T08:34:07.122Z,2.83
2018-07-23T08:36:35.908Z,2.80
2018-07-23T08:39:08.049Z,2.63
2018-07-23T08:41:36.953Z,2.53
2018-07-23T08:44:05.886Z,2.77
2018-07-23T08:46:34.685Z,3.57
2018-07-23T08:49:04.116Z,2.13
2018-07-23T08:51:33.074Z,4.07
2018-07-23T08:54:01.915Z,2.90
2018-07-23T08:56:30.752Z,2.23
2018-07-23T08:58:59.606Z,3.83
2018-07-23T09:01:28.364Z,1.93
2018-07-23T09:03:57.247Z,3.33
2018-07-23T09:06:26.254Z,4.43
2018-07-23T09:08:55.003Z,1.50
2018-07-23T09:11:23.837Z,2.30
2018-07-23T09:13:52.584Z,3.20
2018-07-23T09:16:21.313Z,4.23
2018-07-23T09:18:50.058Z,3.77
2018-07-23T09:21:18.810Z,2.63
2018-07-23T09:23:47.617Z,3.13
2018-07-23T09:26:16.421Z,3.53
2018-07-23T09:28:45.190Z,4.47
2018-07-23T09:31:13.943Z,1.87
2018-07-23T09:33:42.748Z,2.83
2018-07-23T09:36:11.575Z,2.53
2018-07-23T09:38:40.528Z,2.97
2018-07-23T09:41:09.306Z,1.93
2018-07-23T09:43:38.068Z,2.80
2018-07-23T09:46:06.847Z,2.47
2018-07-23T09:48:35.634Z,2.27
2018-07-23T09:51:04.449Z,2.27
2018-07-23T09:53:33.248Z,2.73
2018-07-23T09:56:02.022Z,2.33
2018-07-23T09:58:30.784Z,1.33
2018-07-23T10:01:04.747Z,1.70
2018-07-23T10:03:33.614Z,3.63
2018-07-23T10:06:02.315Z,2.37
2018-07-23T10:08:31.103Z,2.90
2018-07-23T10:10:59.967Z,4.23
2018-07-23T10:13:28.722Z,1.63
2018-07-23T10:15:57.502Z,2.07
2018-07-23T10:18:26.262Z,4.43
2018-07-23T10:20:55.092Z,2.43
2018-07-23T10:23:23.914Z,3.00
2018-07-23T10:25:52.777Z,2.10
2018-07-23T10:28:21.536Z,1.93
2018-07-23T10:30:50.352Z,2.13
2018-07-23T10:33:19.141Z,2.53
2018-07-23T10:35:47.977Z,2.63
2018-07-23T10:38:17.192Z,2.20
2018-07-23T10:40:46.123Z,2.73
2018-07-23T10:43:14.915Z,3.33
2018-07-23T10:45:43.748Z,2.07
2018-07-23T10:48:12.505Z,2.50
2018-07-23T10:50:41.298Z,2.37
2018-07-23T10:53:10.060Z,2.90
2018-07-23T10:55:38.848Z,1.70
2018-07-23T10:58:07.656Z,3.23
2018-07-23T11:00:36.452Z,2.57
2018-07-23T11:03:05.328Z,3.97
2018-07-23T11:05:34.163Z,3.07
2018-07-23T11:08:02.987Z,4.70
2018-07-23T11:10:31.816Z,2.17
2018-07-23T11:13:00.645Z,1.23
2018-07-23T11:15:29.412Z,3.80
2018-07-23T11:17:58.241Z,3.13
2018-07-23T11:20:27.057Z,2.67
2018-07-23T11:22:55.860Z,3.50
2018-07-23T11:25:39.088Z,2.53
2018-07-23T11:27:53.467Z,2.97
2018-07-23T11:30:22.232Z,3.90
2018-07-23T11:32:51.053Z,2.60
2018-07-23T11:35:19.879Z,4.10
2018-07-23T11:37:48.784Z,1.80
2018-07-23T11:40:17.615Z,2.23
2018-07-23T11:42:46.568Z,3.13
2018-07-23T11:45:15.347Z,3.00
2018-07-23T11:47:44.162Z,2.83
2018-07-23T11:50:12.972Z,2.73
2018-07-23T11:52:41.767Z,3.67
2018-07-23T11:55:10.594Z,1.47
2018-07-23T11:57:39.422Z,4.67
2018-07-23T12:00:08.222Z,4.80
2018-07-23T12:02:37.048Z,1.67
2018-07-23T12:05:05.999Z,3.40
2018-07-23T12:07:34.758Z,1.57
2018-07-23T12:10:03.663Z,4.30
2018-07-23T12:12:32.515Z,3.70
2018-07-23T12:15:01.260Z,2.60
2018-07-23T12:17:30.098Z,1.90
2018-07-23T12:19:58.951Z,2.83
2018-07-23T12:22:27.732Z,2.72
2018-07-23T12:24:56.633Z,1.83
2018-07-23T12:27:25.387Z,2.43
2018-07-23T12:29:54.189Z,2.73
2018-07-23T12:32:22.983Z,2.07
2018-07-23T12:34:51.788Z,2.57
2018-07-23T12:37:20.648Z,0.73
2018-07-23T12:39:49.636Z,2.10
2018-07-23T12:42:18.412Z,3.87
2018-07-23T12:44:47.172Z,1.43
2018-07-23T12:47:15.988Z,1.73
2018-07-23T12:49:44.777Z,0.80
2018-07-23T12:52:13.591Z,1.47
2018-07-23T12:54:42.384Z,2.97
2018-07-23T12:57:14.136Z,1.50
2018-07-23T12:59:43.041Z,0.70
2018-07-23T13:02:11.879Z,0.33
2018-07-23T13:04:40.702Z,1.00
2018-07-23T13:07:09.500Z,1.80
2018-07-23T13:09:38.402Z,1.40
2018-07-23T13:12:07.235Z,1.90
2018-07-23T13:14:36.021Z,1.47
2018-07-23T13:17:04.842Z,1.83
2018-07-23T13:19:33.598Z,3.87
2018-07-23T13:22:02.374Z,1.13
2018-07-23T13:24:31.238Z,4.40
2018-07-23T13:27:00.047Z,2.33
2018-07-23T13:29:28.806Z,2.50
2018-07-23T13:31:57.576Z,2.57
2018-07-23T13:34:26.448Z,2.33
2018-07-23T13:36:55.389Z,1.60
2018-07-23T13:39:24.323Z,2.00
2018-07-23T13:41:53.287Z,2.80
2018-07-23T13:44:22.055Z,2.27
2018-07-23T13:46:51.186Z,4.63
2018-07-23T13:49:20.001Z,1.17
2018-07-23T13:51:48.751Z,1.27
2018-07-23T13:54:17.538Z,4.00
2018-07-23T13:56:46.322Z,1.47
2018-07-23T13:59:15.095Z,1.47
2018-07-23T14:01:43.888Z,3.33
2018-07-23T14:04:12.691Z,2.90
2018-07-23T14:06:41.531Z,1.93
2018-07-23T14:09:11.819Z,2.43
2018-07-23T14:11:40.817Z,3.67
2018-07-23T14:14:09.620Z,5.00
2018-07-23T14:16:38.416Z,2.20
2018-07-23T14:19:07.396Z,2.73
2018-07-23T14:21:36.279Z,2.47
2018-07-23T14:24:05.243Z,3.40
2018-07-23T14:26:34.032Z,3.17
2018-07-23T14:29:02.753Z,1.03
2018-07-23T14:31:31.542Z,1.47
2018-07-23T14:34:00.357Z,1.97
2018-07-23T14:36:29.156Z,1.80
2018-07-23T14:38:58.074Z,1.27
2018-07-23T14:41:26.828Z,0.67
2018-07-23T14:43:55.614Z,2.20
2018-07-23T14:46:24.438Z,3.70
2018-07-23T14:48:53.204Z,1.73
2018-07-23T14:51:22.008Z,2.13
2018-07-23T14:53:51.414Z,1.70
2018-07-23T14:56:20.458Z,1.63
2018-07-23T14:58:49.231Z,1.03
2018-07-23T15:01:18.094Z,1.90
2018-07-23T15:03:46.947Z,2.57
2018-07-23T15:06:15.727Z,2.13
2018-07-23T15:08:44.582Z,1.60
2018-07-23T15:11:13.424Z,1.53
2018-07-23T15:13:42.264Z,2.67
2018-07-23T15:16:10.988Z,1.37
2018-07-23T15:18:39.858Z,1.87
2018-07-23T15:21:08.600Z,2.27
2018-07-23T15:23:37.348Z,1.23
2018-07-23T15:26:06.131Z,2.10
2018-07-23T15:28:34.930Z,1.20
2018-07-23T15:31:03.692Z,2.10
2018-07-23T15:33:32.523Z,2.13
2018-07-23T15:36:01.396Z,2.87
2018-07-23T15:38:30.476Z,2.17
2018-07-23T15:40:59.456Z,1.07
2018-07-23T15:43:28.352Z,4.17
2018-07-23T15:45:57.518Z,2.70
2018-07-23T15:48:26.159Z,4.17
2018-07-23T15:50:55.355Z,3.80
2018-07-23T15:53:24.571Z,2.98
2018-07-23T15:55:53.472Z,3.33
2018-07-23T15:58:22.280Z,3.17
2018-07-23T16:00:51.090Z,2.50
2018-07-23T16:03:19.904Z,2.97
2018-07-23T16:05:48.689Z,2.00
2018-07-23T16:08:17.439Z,3.23
2018-07-23T16:10:46.225Z,3.17
2018-07-23T16:13:15.029Z,4.10
2018-07-23T16:15:43.806Z,4.10
2018-07-23T16:18:12.599Z,2.57
2018-07-23T16:20:41.400Z,2.07
2018-07-23T16:23:10.202Z,3.67
2018-07-23T16:25:39.069Z,3.60
2018-07-23T16:28:07.851Z,3.50
2018-07-23T16:30:36.686Z,3.37
2018-07-23T16:33:05.574Z,5.13
2018-07-23T16:35:34.379Z,2.27
2018-07-23T16:38:03.328Z,5.13
2018-07-23T16:40:32.172Z,3.67
2018-07-23T16:43:01.038Z,4.20
2018-07-23T16:45:29.831Z,3.43
2018-07-23T16:47:59.274Z,2.93
2018-07-23T16:50:28.074Z,5.97
2018-07-23T16:52:56.838Z,4.87
2018-07-23T16:55:25.613Z,3.87
2018-07-23T16:57:54.434Z,5.23
2018-07-23T17:00:23.340Z,6.23
2018-07-23T17:02:52.137Z,1.93
2018-07-23T17:05:20.930Z,4.57
2018-07-23T17:07:49.739Z,5.47
2018-07-23T17:10:18.515Z,7.00
2018-07-23T17:12:47.326Z,4.40
2018-07-23T17:15:16.091Z,4.33
2018-07-23T17:17:44.940Z,5.87
2018-07-23T17:20:13.759Z,4.37
2018-07-23T17:22:42.532Z,4.00
2018-07-23T17:25:11.344Z,5.00
2018-07-23T17:27:40.090Z,6.37
2018-07-23T17:30:08.855Z,7.80
2018-07-23T17:32:37.661Z,6.07
2018-07-23T17:35:06.464Z,4.73
2018-07-23T17:37:35.206Z,5.53
2018-07-23T17:40:04.184Z,4.57
2018-07-23T17:42:32.947Z,4.70
2018-07-23T17:45:01.757Z,6.40
2018-07-23T17:47:30.563Z,4.33
2018-07-23T17:49:59.455Z,5.83
2018-07-23T17:52:28.289Z,3.93
2018-07-23T17:54:57.112Z,4.23
2018-07-23T17:57:25.977Z,6.50
2018-07-23T17:59:54.830Z,6.77
2018-07-23T18:02:23.583Z,4.57
2018-07-23T18:04:52.399Z,5.13
2018-07-23T18:07:21.166Z,5.20
2018-07-23T18:09:49.936Z,2.83
2018-07-23T18:12:18.789Z,3.83
2018-07-23T18:14:47.556Z,5.33
2018-07-23T18:17:16.366Z,6.20
2018-07-23T18:19:45.158Z,3.73
2018-07-23T18:22:13.958Z,3.73
2018-07-23T18:24:42.727Z,4.07
2018-07-23T18:27:11.530Z,4.10
2018-07-23T18:29:40.352Z,4.03
2018-07-23T18:32:09.231Z,7.03
2018-07-23T18:34:38.066Z,5.83
2018-07-23T18:37:06.924Z,3.53
2018-07-23T18:39:35.766Z,3.93
2018-07-23T18:42:04.588Z,2.83
2018-07-23T18:44:33.413Z,4.70
2018-07-23T18:47:02.232Z,4.30
2018-07-23T18:49:44.200Z,7.90
2018-07-23T18:52:13.564Z,3.67
2018-07-23T18:54:43.408Z,3.73
2018-07-23T18:57:12.212Z,6.90
2018-07-23T18:59:41.079Z,2.10
2018-07-23T19:02:11.639Z,6.03
2018-07-23T19:04:40.561Z,4.50
2018-07-23T19:07:09.952Z,3.57
2018-07-23T19:09:38.759Z,3.80
2018-07-23T19:12:08.083Z,3.13
2018-07-23T19:14:36.918Z,4.67
2018-07-23T19:17:07.065Z,5.23
2018-07-23T19:19:35.873Z,4.33
2018-07-23T19:22:04.731Z,4.20
2018-07-23T19:24:33.545Z,3.80
2018-07-23T19:27:02.626Z,4.27
2018-07-23T19:29:31.419Z,3.83
2018-07-23T19:32:00.229Z,3.60
2018-07-23T19:34:29.023Z,3.53
2018-07-23T19:36:57.853Z,2.67
2018-07-23T19:39:26.689Z,4.20
2018-07-23T19:41:55.527Z,6.17
2018-07-23T19:44:24.311Z,4.63
2018-07-23T19:46:53.114Z,4.37
2018-07-23T19:49:21.881Z,3.10
2018-07-23T19:51:50.754Z,3.10
2018-07-23T19:54:19.587Z,2.83
2018-07-23T19:56:48.400Z,6.50
2018-07-23T19:59:17.230Z,4.57
2018-07-23T20:01:46.055Z,2.90
2018-07-23T20:04:14.954Z,5.00
2018-07-23T20:06:43.752Z,3.47
2018-07-23T20:09:12.793Z,4.57
2018-07-23T20:11:41.601Z,3.53
2018-07-23T20:14:10.525Z,2.77
2018-07-23T20:16:39.353Z,3.87
2018-07-23T20:19:08.140Z,4.90
2018-07-23T20:21:36.934Z,3.20
2018-07-23T20:24:05.888Z,3.07
2018-07-23T20:26:34.634Z,3.63
2018-07-23T20:29:03.496Z,4.03
2018-07-23T20:31:32.278Z,4.30
2018-07-23T20:34:01.216Z,6.13
2018-07-23T20:36:30.017Z,4.87
2018-07-23T20:38:58.975Z,5.13
2018-07-23T20:41:27.735Z,5.57
2018-07-23T20:43:56.509Z,4.00
2018-07-23T20:46:25.328Z,3.63
2018-07-23T20:48:54.215Z,6.10
2018-07-23T20:51:22.984Z,6.23
2018-07-23T20:53:51.807Z,3.97
2018-07-23T20:56:20.580Z,3.87
2018-07-23T20:58:49.362Z,5.67
2018-07-23T21:01:18.108Z,4.43
2018-07-23T21:03:46.889Z,4.87
2018-07-23T21:06:15.803Z,5.50
2018-07-23T21:08:44.562Z,7.10
2018-07-23T21:11:13.332Z,3.67
2018-07-23T21:13:42.112Z,5.67
2018-07-23T21:16:11.019Z,6.77
2018-07-23T21:18:39.824Z,7.00
2018-07-23T21:21:08.647Z,7.53
2018-07-23T21:23:37.505Z,3.43
2018-07-23T21:26:06.415Z,6.87
2018-07-23T21:28:35.341Z,8.97
2018-07-23T21:31:04.208Z,5.33
2018-07-23T21:33:32.977Z,3.93
2018-07-23T21:36:01.723Z,4.23
2018-07-23T21:38:30.567Z,5.47
2018-07-23T21:40:59.458Z,6.30
2018-07-23T21:43:28.285Z,6.53
2018-07-23T21:45:57.149Z,6.93
2018-07-23T21:48:25.975Z,5.17
2018-07-23T21:50:54.766Z,7.27
2018-07-23T21:53:23.619Z,5.27
2018-07-23T21:55:52.471Z,6.53
2018-07-23T21:58:21.241Z,3.50
2018-07-23T22:00:50.057Z,4.53
2018-07-23T22:03:18.981Z,5.10
2018-07-23T22:05:47.790Z,3.80
2018-07-23T22:08:16.588Z,4.03
2018-07-23T22:10:45.399Z,4.77
2018-07-23T22:13:14.274Z,4.10
2018-07-23T22:15:43.074Z,4.97
2018-07-23T22:18:11.904Z,3.83
2018-07-23T22:20:40.669Z,3.33
2018-07-23T22:23:09.485Z,3.40
2018-07-23T22:25:38.290Z,3.60
2018-07-23T22:28:07.090Z,4.20
2018-07-23T22:30:35.890Z,2.87
2018-07-23T22:33:04.791Z,4.53
2018-07-23T22:35:33.638Z,4.10
2018-07-23T22:38:02.467Z,2.97
2018-07-23T22:40:31.264Z,3.80
2018-07-23T22:43:00.040Z,2.73
2018-07-23T22:45:28.812Z,7.53
2018-07-23T22:47:57.552Z,4.40
2018-07-23T22:50:26.570Z,7.03
2018-07-23T22:52:55.360Z,4.93
2018-07-23T22:55:24.126Z,5.30
2018-07-23T22:57:52.898Z,5.97
2018-07-23T23:00:21.830Z,6.37
2018-07-23T23:02:50.662Z,5.03
2018-07-23T23:05:19.437Z,5.37
2018-07-23T23:07:48.213Z,5.70
2018-07-23T23:10:17.001Z,5.13
2018-07-23T23:12:45.868Z,9.43
2018-07-23T23:15:14.697Z,5.77
2018-07-23T23:17:43.473Z,5.87
2018-07-23T23:20:12.270Z,4.17
2018-07-23T23:22:41.087Z,5.07
2018-07-23T23:25:09.885Z,4.10
2018-07-23T23:27:38.756Z,4.23
2018-07-23T23:30:08.345Z,6.17
2018-07-23T23:32:37.126Z,5.20
2018-07-23T23:35:05.984Z,4.00
2018-07-23T23:37:34.750Z,4.03
2018-07-23T23:40:03.632Z,4.77
2018-07-23T23:42:32.468Z,5.17
2018-07-23T23:45:01.262Z,4.83
2018-07-23T23:47:30.107Z,4.80
2018-07-23T23:49:58.859Z,7.23
2018-07-23T23:52:27.623Z,5.07
2018-07-23T23:54:56.450Z,5.37
2018-07-23T23:57:25.310Z,6.23
2018-07-23T23:59:54.098Z,7.37
